Skip to main content.
Our real time weather data display below is updated continuously via our 24/7 live data feed.
 TIME   TEMPERATURE   WINDSPEED   DIRECTION   HUMIDITY   BAROMETER   RAINFALL 
5:16 21.0°C (69.8°F) 25.9 kmh (16.1 mph) SSW 73% 1007.1hPa (29.74 inHg) 0.0mm (0.00 in.)
4:16 21.0°C (69.8 °F) 27.8 kmh (17.3 mph) S 77% 1008.1hPa (29.77 inHg) 0.0mm (0.00 in.)
3:16 21.0°C (69.8 °F) 27.8 kmh (17.3 mph) S 73% 1008.1hPa (29.77 inHg) 0.0mm (0.00 in.)
2:16 21.0°C (69.8 °F) 27.8 kmh (17.3 mph) S 68% 1008.1hPa (29.77 inHg) 0.0mm (0.00 in.)
1:16 21.0°C (69.8 °F) 37.0 kmh (23.0 mph) S 68% 1008.1hPa (29.77 inHg) 0.0mm (0.00 in.)
0:16 20.0°C (68.0 °F) 40.7 kmh (25.3 mph) S 68% 1008.1hPa (29.77 inHg) 0.0mm (0.00 in.)
23:16 20.0°C (68.0 °F) 35.2 kmh (21.9 mph) S 68% 1009.1hPa (29.80 inHg) 0.0mm (0.00 in.)
22:16 20.0°C (68.0 °F) 44.4 kmh (27.6 mph) S 68% 1009.1hPa (29.80 inHg) 0.0mm (0.00 in.)
21:16 20.0°C (68.0 °F) 38.9 kmh (24.2 mph) SSE 68% 1009.1hPa (29.80 inHg) 0.0mm (0.00 in.)
20:16 20.0°C (68.0 °F) 31.5 kmh (19.6 mph) SSE 72% 1009.1hPa (29.80 inHg) 0.0mm (0.00 in.)
19:15 21.0°C (69.8 °F) 31.5 kmh (19.6 mph) SSE 56% 1009.1hPa (29.80 inHg) 0.0mm (0.00 in.)
18:15 21.0°C (69.8 °F) 25.9 kmh (16.1 mph) S 60% 1009.1hPa (29.80 inHg) 0.0mm (0.00 in.)
17:15 21.0°C (69.8 °F) 29.6 kmh (18.4 mph) S 60% 1009.1hPa (29.80 inHg) 0.0mm (0.00 in.)
16:15 21.0°C (69.8 °F) 31.5 kmh (19.6 mph) SSE 68% 1009.1hPa (29.80 inHg) 0.0mm (0.00 in.)
15:15 22.0°C (71.6 °F) 33.3 kmh (20.7 mph) S 64% 1010.2hPa (29.83 inHg) 0.0mm (0.00 in.)
14:15 23.0°C (73.4 °F) 37.0 kmh (23.0 mph) SSE 60% 1010.2hPa (29.83 inHg) 0.0mm (0.00 in.)
13:15 23.0°C (73.4 °F) 35.2 kmh (21.9 mph) S 60% 1010.8hPa (29.85 inHg) 0.0mm (0.00 in.)
12:15 23.0°C (73.4 °F) 31.5 kmh (19.6 mph) S 60% 1011.9hPa (29.88 inHg) 0.0mm (0.00 in.)
11:15 23.0°C (73.4 °F) 33.3 kmh (20.7 mph) S 60% 1012.9hPa (29.91 inHg) 0.0mm (0.00 in.)
10:15 21.0°C (69.8 °F) 25.9 kmh (16.1 mph) S 64% 1012.9hPa (29.91 inHg) 0.0mm (0.00 in.)
9:15 21.0°C (69.8 °F) 33.3 kmh (20.7 mph) S 73% 1012.9hPa (29.91 inHg) 0.0mm (0.00 in.)
7:58 21.0°C (69.8 °F) 27.8 kmh (17.3 mph) S 73% 1011.9hPa (29.88 inHg) 0.0mm (0.00 in.)
6:53 21.0°C (69.8 °F) 29.6 kmh (18.4 mph) S 73% 1011.9hPa (29.88 inHg) 0.0mm (0.00 in.)
5:53 21.0°C (69.8 °F) 25.9 kmh (16.1 mph) S 73% 1011.9hPa (29.88 inHg) 0.0mm (0.00 in.)